sensor_id;sensor_type;location;lat;lon;timestamp;P1;durP1;ratioP1;P2;durP2;ratioP2
13979;SDS011;73871;49.900;8.594;2024-01-07T00:01:45;4.33;;;3.33;;
13979;SDS011;73871;49.900;8.594;2024-01-07T00:04:16;3.77;;;3.13;;
13979;SDS011;73871;49.900;8.594;2024-01-07T00:06:43;4.17;;;3.50;;
13979;SDS011;73871;49.900;8.594;2024-01-07T00:09:12;5.53;;;4.37;;
13979;SDS011;73871;49.900;8.594;2024-01-07T00:11:40;5.20;;;4.10;;
13979;SDS011;73871;49.900;8.594;2024-01-07T00:14:07;4.63;;;4.13;;
13979;SDS011;73871;49.900;8.594;2024-01-07T00:16:33;5.27;;;4.33;;
13979;SDS011;73871;49.900;8.594;2024-01-07T00:19:00;5.27;;;4.57;;
13979;SDS011;73871;49.900;8.594;2024-01-07T00:21:27;5.87;;;4.10;;
13979;SDS011;73871;49.900;8.594;2024-01-07T00:23:55;4.23;;;3.83;;
13979;SDS011;73871;49.900;8.594;2024-01-07T00:26:21;5.67;;;4.33;;
13979;SDS011;73871;49.900;8.594;2024-01-07T00:28:48;4.63;;;4.13;;
13979;SDS011;73871;49.900;8.594;2024-01-07T00:31:15;5.60;;;4.63;;
13979;SDS011;73871;49.900;8.594;2024-01-07T00:33:42;4.77;;;4.30;;
13979;SDS011;73871;49.900;8.594;2024-01-07T00:36:09;4.50;;;3.87;;
13979;SDS011;73871;49.900;8.594;2024-01-07T00:38:37;4.97;;;4.20;;
13979;SDS011;73871;49.900;8.594;2024-01-07T00:41:03;4.90;;;4.40;;
13979;SDS011;73871;49.900;8.594;2024-01-07T00:43:31;4.70;;;4.30;;
13979;SDS011;73871;49.900;8.594;2024-01-07T00:45:58;6.07;;;4.37;;
13979;SDS011;73871;49.900;8.594;2024-01-07T00:48:25;4.67;;;3.93;;
13979;SDS011;73871;49.900;8.594;2024-01-07T00:50:52;4.30;;;3.90;;
13979;SDS011;73871;49.900;8.594;2024-01-07T00:53:19;4.23;;;3.83;;
13979;SDS011;73871;49.900;8.594;2024-01-07T00:55:45;4.87;;;3.93;;
13979;SDS011;73871;49.900;8.594;2024-01-07T00:58:12;4.70;;;4.00;;
13979;SDS011;73871;49.900;8.594;2024-01-07T01:00:40;4.63;;;3.70;;
13979;SDS011;73871;49.900;8.594;2024-01-07T01:03:07;4.10;;;3.70;;
13979;SDS011;73871;49.900;8.594;2024-01-07T01:05:34;4.30;;;3.77;;
13979;SDS011;73871;49.900;8.594;2024-01-07T01:08:02;4.77;;;4.13;;
13979;SDS011;73871;49.900;8.594;2024-01-07T01:10:29;4.27;;;3.87;;
13979;SDS011;73871;49.900;8.594;2024-01-07T01:12:56;4.93;;;4.10;;
13979;SDS011;73871;49.900;8.594;2024-01-07T01:15:22;4.30;;;3.80;;
13979;SDS011;73871;49.900;8.594;2024-01-07T01:17:49;4.77;;;4.17;;
13979;SDS011;73871;49.900;8.594;2024-01-07T01:20:16;4.40;;;3.80;;
13979;SDS011;73871;49.900;8.594;2024-01-07T01:22:43;4.67;;;4.27;;
13979;SDS011;73871;49.900;8.594;2024-01-07T01:25:10;4.83;;;4.30;;
13979;SDS011;73871;49.900;8.594;2024-01-07T01:27:37;4.27;;;3.87;;
13979;SDS011;73871;49.900;8.594;2024-01-07T01:30:04;4.97;;;4.30;;
13979;SDS011;73871;49.900;8.594;2024-01-07T01:32:31;4.90;;;4.40;;
13979;SDS011;73871;49.900;8.594;2024-01-07T01:34:58;4.40;;;3.80;;
13979;SDS011;73871;49.900;8.594;2024-01-07T01:37:25;4.37;;;3.73;;
13979;SDS011;73871;49.900;8.594;2024-01-07T01:39:54;4.70;;;4.20;;
13979;SDS011;73871;49.900;8.594;2024-01-07T01:42:21;4.80;;;4.10;;
13979;SDS011;73871;49.900;8.594;2024-01-07T01:44:47;3.97;;;3.53;;
13979;SDS011;73871;49.900;8.594;2024-01-07T01:47:14;3.90;;;3.50;;
13979;SDS011;73871;49.900;8.594;2024-01-07T01:49:41;4.40;;;3.67;;
13979;SDS011;73871;49.900;8.594;2024-01-07T01:52:09;5.43;;;4.40;;
13979;SDS011;73871;49.900;8.594;2024-01-07T01:54:36;3.73;;;3.33;;
13979;SDS011;73871;49.900;8.594;2024-01-07T01:57:04;4.07;;;3.67;;
13979;SDS011;73871;49.900;8.594;2024-01-07T01:59:31;4.60;;;3.77;;
13979;SDS011;73871;49.900;8.594;2024-01-07T02:02:00;4.37;;;3.50;;
13979;SDS011;73871;49.900;8.594;2024-01-07T02:04:29;5.13;;;4.10;;
13979;SDS011;73871;49.900;8.594;2024-01-07T02:06:57;4.67;;;4.00;;
13979;SDS011;73871;49.900;8.594;2024-01-07T02:09:24;4.17;;;3.60;;
13979;SDS011;73871;49.900;8.594;2024-01-07T02:12:03;4.43;;;3.70;;
13979;SDS011;73871;49.900;8.594;2024-01-07T02:14:31;4.27;;;3.87;;
13979;SDS011;73871;49.900;8.594;2024-01-07T02:16:58;3.80;;;3.43;;
13979;SDS011;73871;49.900;8.594;2024-01-07T02:19:25;4.60;;;3.70;;
13979;SDS011;73871;49.900;8.594;2024-01-07T02:21:52;4.23;;;3.73;;
13979;SDS011;73871;49.900;8.594;2024-01-07T02:24:19;3.77;;;3.37;;
13979;SDS011;73871;49.900;8.594;2024-01-07T02:26:46;4.23;;;3.30;;
13979;SDS011;73871;49.900;8.594;2024-01-07T02:29:13;4.43;;;3.60;;
13979;SDS011;73871;49.900;8.594;2024-01-07T02:31:40;4.77;;;3.63;;
13979;SDS011;73871;49.900;8.594;2024-01-07T02:34:09;4.23;;;3.53;;
13979;SDS011;73871;49.900;8.594;2024-01-07T02:36:36;5.30;;;3.20;;
13979;SDS011;73871;49.900;8.594;2024-01-07T02:39:03;3.53;;;3.20;;
13979;SDS011;73871;49.900;8.594;2024-01-07T02:41:30;3.70;;;3.37;;
13979;SDS011;73871;49.900;8.594;2024-01-07T02:43:57;3.57;;;3.17;;
13979;SDS011;73871;49.900;8.594;2024-01-07T02:46:24;3.40;;;2.87;;
13979;SDS011;73871;49.900;8.594;2024-01-07T02:48:50;4.63;;;3.40;;
13979;SDS011;73871;49.900;8.594;2024-01-07T02:51:17;3.67;;;3.33;;
13979;SDS011;73871;49.900;8.594;2024-01-07T02:53:44;3.73;;;3.33;;
13979;SDS011;73871;49.900;8.594;2024-01-07T02:56:11;3.90;;;2.83;;
13979;SDS011;73871;49.900;8.594;2024-01-07T02:58:37;3.70;;;3.03;;
13979;SDS011;73871;49.900;8.594;2024-01-07T03:01:08;4.17;;;3.70;;
13979;SDS011;73871;49.900;8.594;2024-01-07T03:03:36;3.87;;;3.33;;
13979;SDS011;73871;49.900;8.594;2024-01-07T03:06:03;4.73;;;3.60;;
13979;SDS011;73871;49.900;8.594;2024-01-07T03:08:31;3.80;;;3.47;;
13979;SDS011;73871;49.900;8.594;2024-01-07T03:10:57;4.00;;;3.53;;
13979;SDS011;73871;49.900;8.594;2024-01-07T03:13:25;4.07;;;3.63;;
13979;SDS011;73871;49.900;8.594;2024-01-07T03:15:53;3.80;;;3.40;;
13979;SDS011;73871;49.900;8.594;2024-01-07T03:18:19;3.90;;;3.30;;
13979;SDS011;73871;49.900;8.594;2024-01-07T03:20:46;4.47;;;3.50;;
13979;SDS011;73871;49.900;8.594;2024-01-07T03:23:13;4.20;;;3.67;;
13979;SDS011;73871;49.900;8.594;2024-01-07T03:25:40;4.77;;;3.57;;
13979;SDS011;73871;49.900;8.594;2024-01-07T03:28:07;4.07;;;3.50;;
13979;SDS011;73871;49.900;8.594;2024-01-07T03:30:34;4.23;;;3.73;;
13979;SDS011;73871;49.900;8.594;2024-01-07T03:33:01;3.80;;;3.40;;
13979;SDS011;73871;49.900;8.594;2024-01-07T03:35:28;4.83;;;3.60;;
13979;SDS011;73871;49.900;8.594;2024-01-07T03:37:55;3.97;;;3.57;;
13979;SDS011;73871;49.900;8.594;2024-01-07T03:40:22;4.90;;;4.10;;
13979;SDS011;73871;49.900;8.594;2024-01-07T03:42:48;5.13;;;3.70;;
13979;SDS011;73871;49.900;8.594;2024-01-07T03:45:15;5.00;;;3.83;;
13979;SDS011;73871;49.900;8.594;2024-01-07T03:47:42;4.77;;;4.00;;
13979;SDS011;73871;49.900;8.594;2024-01-07T03:50:09;5.00;;;3.90;;
13979;SDS011;73871;49.900;8.594;2024-01-07T03:52:35;4.87;;;4.27;;
13979;SDS011;73871;49.900;8.594;2024-01-07T03:55:02;5.00;;;4.40;;
13979;SDS011;73871;49.900;8.594;2024-01-07T03:57:30;4.63;;;3.80;;
13979;SDS011;73871;49.900;8.594;2024-01-07T03:59:56;4.77;;;4.10;;
13979;SDS011;73871;49.900;8.594;2024-01-07T04:02:23;5.20;;;4.57;;
13979;SDS011;73871;49.900;8.594;2024-01-07T04:04:50;4.80;;;3.80;;
13979;SDS011;73871;49.900;8.594;2024-01-07T04:07:16;6.17;;;4.40;;
13979;SDS011;73871;49.900;8.594;2024-01-07T04:09:43;4.43;;;3.87;;
13979;SDS011;73871;49.900;8.594;2024-01-07T04:12:10;6.50;;;4.50;;
13979;SDS011;73871;49.900;8.594;2024-01-07T04:14:37;4.80;;;4.00;;
13979;SDS011;73871;49.900;8.594;2024-01-07T04:17:04;5.77;;;4.43;;
13979;SDS011;73871;49.900;8.594;2024-01-07T04:19:31;5.20;;;4.10;;
13979;SDS011;73871;49.900;8.594;2024-01-07T04:21:58;5.17;;;4.00;;
13979;SDS011;73871;49.900;8.594;2024-01-07T04:24:25;5.00;;;4.20;;
13979;SDS011;73871;49.900;8.594;2024-01-07T04:26:51;7.13;;;4.30;;
13979;SDS011;73871;49.900;8.594;2024-01-07T04:29:19;6.23;;;4.80;;
13979;SDS011;73871;49.900;8.594;2024-01-07T04:31:45;6.50;;;4.57;;
13979;SDS011;73871;49.900;8.594;2024-01-07T04:34:12;5.50;;;4.80;;
13979;SDS011;73871;49.900;8.594;2024-01-07T04:36:39;5.37;;;4.63;;
13979;SDS011;73871;49.900;8.594;2024-01-07T04:39:06;6.50;;;5.23;;
13979;SDS011;73871;49.900;8.594;2024-01-07T04:41:33;5.80;;;4.70;;
13979;SDS011;73871;49.900;8.594;2024-01-07T04:43:59;6.27;;;5.13;;
13979;SDS011;73871;49.900;8.594;2024-01-07T04:46:26;6.93;;;5.37;;
13979;SDS011;73871;49.900;8.594;2024-01-07T04:48:53;7.53;;;5.47;;
13979;SDS011;73871;49.900;8.594;2024-01-07T04:51:20;7.13;;;5.50;;
13979;SDS011;73871;49.900;8.594;2024-01-07T04:53:47;6.47;;;5.23;;
13979;SDS011;73871;49.900;8.594;2024-01-07T04:56:14;7.17;;;5.67;;
13979;SDS011;73871;49.900;8.594;2024-01-07T04:58:41;8.00;;;5.77;;
13979;SDS011;73871;49.900;8.594;2024-01-07T05:01:08;7.90;;;6.10;;
13979;SDS011;73871;49.900;8.594;2024-01-07T05:03:34;8.07;;;6.23;;
13979;SDS011;73871;49.900;8.594;2024-01-07T05:06:02;7.63;;;5.83;;
13979;SDS011;73871;49.900;8.594;2024-01-07T05:08:29;8.60;;;6.47;;
13979;SDS011;73871;49.900;8.594;2024-01-07T05:10:55;7.87;;;6.83;;
13979;SDS011;73871;49.900;8.594;2024-01-07T05:13:22;6.53;;;5.70;;
13979;SDS011;73871;49.900;8.594;2024-01-07T05:15:49;6.50;;;5.80;;
13979;SDS011;73871;49.900;8.594;2024-01-07T05:18:23;7.67;;;6.13;;
13979;SDS011;73871;49.900;8.594;2024-01-07T05:20:51;7.63;;;6.40;;
13979;SDS011;73871;49.900;8.594;2024-01-07T05:23:18;8.77;;;6.87;;
13979;SDS011;73871;49.900;8.594;2024-01-07T05:25:45;9.47;;;7.43;;
13979;SDS011;73871;49.900;8.594;2024-01-07T05:28:12;10.00;;;7.60;;
13979;SDS011;73871;49.900;8.594;2024-01-07T05:30:40;11.23;;;7.67;;
13979;SDS011;73871;49.900;8.594;2024-01-07T05:33:10;9.80;;;8.03;;
13979;SDS011;73871;49.900;8.594;2024-01-07T05:35:37;9.23;;;7.93;;
13979;SDS011;73871;49.900;8.594;2024-01-07T05:38:03;9.53;;;7.70;;
13979;SDS011;73871;49.900;8.594;2024-01-07T05:40:30;11.50;;;8.80;;
13979;SDS011;73871;49.900;8.594;2024-01-07T05:42:57;10.20;;;8.23;;
13979;SDS011;73871;49.900;8.594;2024-01-07T05:45:24;10.17;;;8.50;;
13979;SDS011;73871;49.900;8.594;2024-01-07T05:47:50;11.20;;;8.53;;
13979;SDS011;73871;49.900;8.594;2024-01-07T05:50:17;11.83;;;8.97;;
13979;SDS011;73871;49.900;8.594;2024-01-07T05:52:45;10.17;;;9.07;;
13979;SDS011;73871;49.900;8.594;2024-01-07T05:55:12;12.27;;;9.23;;
13979;SDS011;73871;49.900;8.594;2024-01-07T05:57:39;11.47;;;9.47;;
13979;SDS011;73871;49.900;8.594;2024-01-07T06:00:06;10.37;;;9.07;;
13979;SDS011;73871;49.900;8.594;2024-01-07T06:02:38;12.30;;;9.53;;
13979;SDS011;73871;49.900;8.594;2024-01-07T06:05:05;11.87;;;9.70;;
13979;SDS011;73871;49.900;8.594;2024-01-07T06:07:32;14.17;;;11.17;;
13979;SDS011;73871;49.900;8.594;2024-01-07T06:09:59;14.90;;;10.07;;
13979;SDS011;73871;49.900;8.594;2024-01-07T06:12:26;13.53;;;10.43;;
13979;SDS011;73871;49.900;8.594;2024-01-07T06:14:53;11.33;;;9.37;;
13979;SDS011;73871;49.900;8.594;2024-01-07T06:17:20;12.20;;;9.70;;
13979;SDS011;73871;49.900;8.594;2024-01-07T06:19:47;13.77;;;10.27;;
13979;SDS011;73871;49.900;8.594;2024-01-07T06:22:14;11.27;;;9.10;;
13979;SDS011;73871;49.900;8.594;2024-01-07T06:24:41;12.10;;;9.13;;
13979;SDS011;73871;49.900;8.594;2024-01-07T06:27:08;11.30;;;8.70;;
13979;SDS011;73871;49.900;8.594;2024-01-07T06:29:35;9.80;;;8.67;;
13979;SDS011;73871;49.900;8.594;2024-01-07T06:32:01;9.90;;;7.90;;
13979;SDS011;73871;49.900;8.594;2024-01-07T06:34:29;8.97;;;7.70;;
13979;SDS011;73871;49.900;8.594;2024-01-07T06:36:56;8.63;;;7.67;;
13979;SDS011;73871;49.900;8.594;2024-01-07T06:39:23;9.70;;;7.37;;
13979;SDS011;73871;49.900;8.594;2024-01-07T06:41:53;11.50;;;7.70;;
13979;SDS011;73871;49.900;8.594;2024-01-07T06:44:20;9.03;;;7.73;;
13979;SDS011;73871;49.900;8.594;2024-01-07T06:46:46;8.87;;;7.10;;
13979;SDS011;73871;49.900;8.594;2024-01-07T06:49:13;9.17;;;7.97;;
13979;SDS011;73871;49.900;8.594;2024-01-07T06:51:40;8.53;;;7.17;;
13979;SDS011;73871;49.900;8.594;2024-01-07T06:54:07;9.17;;;7.80;;
13979;SDS011;73871;49.900;8.594;2024-01-07T06:56:37;9.17;;;7.50;;
13979;SDS011;73871;49.900;8.594;2024-01-07T06:59:04;8.77;;;7.60;;
13979;SDS011;73871;49.900;8.594;2024-01-07T07:01:31;12.87;;;8.10;;
13979;SDS011;73871;49.900;8.594;2024-01-07T07:03:58;13.13;;;7.80;;
13979;SDS011;73871;49.900;8.594;2024-01-07T07:06:25;10.50;;;8.73;;
13979;SDS011;73871;49.900;8.594;2024-01-07T07:08:52;10.37;;;8.27;;
13979;SDS011;73871;49.900;8.594;2024-01-07T07:11:18;10.57;;;8.17;;
13979;SDS011;73871;49.900;8.594;2024-01-07T07:13:45;11.57;;;8.27;;
13979;SDS011;73871;49.900;8.594;2024-01-07T07:16:12;10.47;;;8.07;;
13979;SDS011;73871;49.900;8.594;2024-01-07T07:18:39;10.97;;;8.53;;
13979;SDS011;73871;49.900;8.594;2024-01-07T07:21:06;9.80;;;8.70;;
13979;SDS011;73871;49.900;8.594;2024-01-07T07:23:33;11.80;;;8.83;;
13979;SDS011;73871;49.900;8.594;2024-01-07T07:26:00;10.93;;;8.63;;
13979;SDS011;73871;49.900;8.594;2024-01-07T07:28:26;12.43;;;8.50;;
13979;SDS011;73871;49.900;8.594;2024-01-07T07:30:53;10.33;;;8.67;;
13979;SDS011;73871;49.900;8.594;2024-01-07T07:33:20;11.20;;;8.50;;
13979;SDS011;73871;49.900;8.594;2024-01-07T07:35:47;13.27;;;9.17;;
13979;SDS011;73871;49.900;8.594;2024-01-07T07:38:14;12.80;;;9.50;;
13979;SDS011;73871;49.900;8.594;2024-01-07T07:40:41;10.60;;;9.00;;
13979;SDS011;73871;49.900;8.594;2024-01-07T07:43:08;11.40;;;9.10;;
13979;SDS011;73871;49.900;8.594;2024-01-07T07:45:35;12.27;;;9.37;;
13979;SDS011;73871;49.900;8.594;2024-01-07T07:48:02;10.10;;;8.27;;
13979;SDS011;73871;49.900;8.594;2024-01-07T07:50:29;9.60;;;7.77;;
13979;SDS011;73871;49.900;8.594;2024-01-07T07:52:56;8.47;;;6.67;;
13979;SDS011;73871;49.900;8.594;2024-01-07T07:55:23;8.63;;;6.80;;
13979;SDS011;73871;49.900;8.594;2024-01-07T07:57:50;9.00;;;7.07;;
13979;SDS011;73871;49.900;8.594;2024-01-07T08:00:18;9.40;;;6.33;;
13979;SDS011;73871;49.900;8.594;2024-01-07T08:02:45;9.57;;;6.77;;
13979;SDS011;73871;49.900;8.594;2024-01-07T08:05:12;7.30;;;5.83;;
13979;SDS011;73871;49.900;8.594;2024-01-07T08:07:40;8.57;;;6.87;;
13979;SDS011;73871;49.900;8.594;2024-01-07T08:10:07;7.63;;;6.33;;
13979;SDS011;73871;49.900;8.594;2024-01-07T08:12:34;7.47;;;6.40;;
13979;SDS011;73871;49.900;8.594;2024-01-07T08:15:01;7.67;;;6.53;;
13979;SDS011;73871;49.900;8.594;2024-01-07T08:17:28;7.93;;;6.13;;
13979;SDS011;73871;49.900;8.594;2024-01-07T08:19:55;7.50;;;6.27;;
13979;SDS011;73871;49.900;8.594;2024-01-07T08:22:22;8.93;;;6.73;;
13979;SDS011;73871;49.900;8.594;2024-01-07T08:24:49;8.93;;;6.07;;
13979;SDS011;73871;49.900;8.594;2024-01-07T08:27:16;7.63;;;6.07;;
13979;SDS011;73871;49.900;8.594;2024-01-07T08:29:43;7.57;;;5.60;;
13979;SDS011;73871;49.900;8.594;2024-01-07T08:32:10;7.50;;;6.03;;
13979;SDS011;73871;49.900;8.594;2024-01-07T08:34:38;6.07;;;5.40;;
13979;SDS011;73871;49.900;8.594;2024-01-07T08:37:07;5.93;;;5.33;;
13979;SDS011;73871;49.900;8.594;2024-01-07T08:39:34;6.73;;;5.93;;
13979;SDS011;73871;49.900;8.594;2024-01-07T08:42:01;5.47;;;4.90;;
13979;SDS011;73871;49.900;8.594;2024-01-07T08:44:30;5.83;;;5.00;;
13979;SDS011;73871;49.900;8.594;2024-01-07T08:46:56;5.87;;;5.27;;
13979;SDS011;73871;49.900;8.594;2024-01-07T08:49:23;6.23;;;5.27;;
13979;SDS011;73871;49.900;8.594;2024-01-07T08:51:51;6.50;;;4.83;;
13979;SDS011;73871;49.900;8.594;2024-01-07T08:54:17;5.77;;;4.90;;
13979;SDS011;73871;49.900;8.594;2024-01-07T08:56:44;6.10;;;5.23;;
13979;SDS011;73871;49.900;8.594;2024-01-07T08:59:11;6.03;;;5.30;;
13979;SDS011;73871;49.900;8.594;2024-01-07T09:01:38;5.90;;;5.27;;
13979;SDS011;73871;49.900;8.594;2024-01-07T09:04:05;5.10;;;4.60;;
13979;SDS011;73871;49.900;8.594;2024-01-07T09:06:32;5.47;;;4.57;;
13979;SDS011;73871;49.900;8.594;2024-01-07T09:08:58;6.17;;;5.57;;
13979;SDS011;73871;49.900;8.594;2024-01-07T09:11:25;5.87;;;5.20;;
13979;SDS011;73871;49.900;8.594;2024-01-07T09:13:52;5.43;;;4.70;;
13979;SDS011;73871;49.900;8.594;2024-01-07T09:16:19;5.30;;;4.73;;
13979;SDS011;73871;49.900;8.594;2024-01-07T09:18:46;6.60;;;4.87;;
13979;SDS011;73871;49.900;8.594;2024-01-07T09:21:13;5.53;;;4.77;;
13979;SDS011;73871;49.900;8.594;2024-01-07T09:23:41;6.07;;;5.13;;
13979;SDS011;73871;49.900;8.594;2024-01-07T09:26:09;5.67;;;4.90;;
13979;SDS011;73871;49.900;8.594;2024-01-07T09:28:36;4.40;;;4.00;;
13979;SDS011;73871;49.900;8.594;2024-01-07T09:31:03;5.27;;;4.23;;
13979;SDS011;73871;49.900;8.594;2024-01-07T09:33:30;5.53;;;4.70;;
13979;SDS011;73871;49.900;8.594;2024-01-07T09:35:57;5.20;;;4.70;;
13979;SDS011;73871;49.900;8.594;2024-01-07T09:38:36;5.27;;;4.60;;
13979;SDS011;73871;49.900;8.594;2024-01-07T09:41:03;5.63;;;4.90;;
13979;SDS011;73871;49.900;8.594;2024-01-07T09:43:30;5.30;;;4.50;;
13979;SDS011;73871;49.900;8.594;2024-01-07T09:46:02;5.10;;;4.50;;
13979;SDS011;73871;49.900;8.594;2024-01-07T09:48:29;4.97;;;4.47;;
13979;SDS011;73871;49.900;8.594;2024-01-07T09:50:56;5.43;;;4.87;;
13979;SDS011;73871;49.900;8.594;2024-01-07T09:53:25;6.40;;;5.50;;
13979;SDS011;73871;49.900;8.594;2024-01-07T09:58:49;5.23;;;4.70;;
13979;SDS011;73871;49.900;8.594;2024-01-07T10:01:19;5.23;;;4.73;;
13979;SDS011;73871;49.900;8.594;2024-01-07T10:03:54;6.53;;;5.27;;
13979;SDS011;73871;49.900;8.594;2024-01-07T10:06:20;6.67;;;5.27;;
13979;SDS011;73871;49.900;8.594;2024-01-07T10:08:47;6.17;;;5.13;;
13979;SDS011;73871;49.900;8.594;2024-01-07T10:11:14;5.60;;;4.97;;
13979;SDS011;73871;49.900;8.594;2024-01-07T10:13:42;5.80;;;5.10;;
13979;SDS011;73871;49.900;8.594;2024-01-07T10:16:11;5.73;;;4.47;;
13979;SDS011;73871;49.900;8.594;2024-01-07T10:18:38;6.13;;;5.07;;
13979;SDS011;73871;49.900;8.594;2024-01-07T10:21:08;6.23;;;5.40;;
13979;SDS011;73871;49.900;8.594;2024-01-07T10:23:35;6.20;;;5.60;;
13979;SDS011;73871;49.900;8.594;2024-01-07T10:26:02;5.17;;;4.60;;
13979;SDS011;73871;49.900;8.594;2024-01-07T10:28:45;5.90;;;5.30;;
13979;SDS011;73871;49.900;8.594;2024-01-07T10:31:11;5.90;;;5.23;;
13979;SDS011;73871;49.900;8.594;2024-01-07T10:33:39;6.37;;;5.70;;
13979;SDS011;73871;49.900;8.594;2024-01-07T10:36:07;5.73;;;5.10;;
13979;SDS011;73871;49.900;8.594;2024-01-07T10:38:35;6.93;;;6.07;;
13979;SDS011;73871;49.900;8.594;2024-01-07T10:41:02;6.20;;;5.60;;
13979;SDS011;73871;49.900;8.594;2024-01-07T10:43:33;6.63;;;5.53;;
13979;SDS011;73871;49.900;8.594;2024-01-07T10:46:04;7.23;;;5.83;;
13979;SDS011;73871;49.900;8.594;2024-01-07T10:48:32;7.37;;;6.00;;
13979;SDS011;73871;49.900;8.594;2024-01-07T10:51:04;8.00;;;6.13;;
13979;SDS011;73871;49.900;8.594;2024-01-07T10:53:34;6.43;;;5.73;;
13979;SDS011;73871;49.900;8.594;2024-01-07T10:56:05;6.13;;;5.53;;
13979;SDS011;73871;49.900;8.594;2024-01-07T10:58:36;7.07;;;6.13;;
13979;SDS011;73871;49.900;8.594;2024-01-07T11:01:04;6.43;;;5.63;;
13979;SDS011;73871;49.900;8.594;2024-01-07T11:03:36;7.20;;;6.27;;
13979;SDS011;73871;49.900;8.594;2024-01-07T11:06:18;6.73;;;6.00;;
13979;SDS011;73871;49.900;8.594;2024-01-07T11:09:18;6.70;;;6.00;;
13979;SDS011;73871;49.900;8.594;2024-01-07T11:11:50;7.67;;;6.20;;
13979;SDS011;73871;49.900;8.594;2024-01-07T11:17:03;7.13;;;5.97;;
13979;SDS011;73871;49.900;8.594;2024-01-07T11:19:30;8.13;;;6.07;;
13979;SDS011;73871;49.900;8.594;2024-01-07T11:24:51;7.00;;;6.30;;
13979;SDS011;73871;49.900;8.594;2024-01-07T11:27:19;7.93;;;6.60;;
13979;SDS011;73871;49.900;8.594;2024-01-07T11:29:57;6.73;;;5.83;;
13979;SDS011;73871;49.900;8.594;2024-01-07T11:32:33;7.47;;;6.30;;
13979;SDS011;73871;49.900;8.594;2024-01-07T11:35:01;7.90;;;6.20;;
13979;SDS011;73871;49.900;8.594;2024-01-07T11:37:29;8.80;;;7.00;;
13979;SDS011;73871;49.900;8.594;2024-01-07T11:39:56;7.37;;;6.33;;
13979;SDS011;73871;49.900;8.594;2024-01-07T11:42:24;7.77;;;6.67;;
13979;SDS011;73871;49.900;8.594;2024-01-07T11:44:52;7.53;;;6.50;;
13979;SDS011;73871;49.900;8.594;2024-01-07T11:47:21;7.97;;;6.33;;
13979;SDS011;73871;49.900;8.594;2024-01-07T11:49:48;7.03;;;5.63;;
13979;SDS011;73871;49.900;8.594;2024-01-07T11:52:18;7.90;;;5.33;;
13979;SDS011;73871;49.900;8.594;2024-01-07T11:54:49;6.63;;;5.63;;
13979;SDS011;73871;49.900;8.594;2024-01-07T11:57:16;7.10;;;5.30;;
13979;SDS011;73871;49.900;8.594;2024-01-07T11:59:43;6.63;;;5.27;;
13979;SDS011;73871;49.900;8.594;2024-01-07T12:02:11;7.40;;;5.37;;
13979;SDS011;73871;49.900;8.594;2024-01-07T12:04:38;8.20;;;5.90;;
13979;SDS011;73871;49.900;8.594;2024-01-07T12:07:04;6.63;;;5.33;;
13979;SDS011;73871;49.900;8.594;2024-01-07T12:09:31;5.37;;;4.77;;
13979;SDS011;73871;49.900;8.594;2024-01-07T12:11:59;7.67;;;5.27;;
13979;SDS011;73871;49.900;8.594;2024-01-07T12:14:27;6.87;;;5.30;;
13979;SDS011;73871;49.900;8.594;2024-01-07T12:16:55;6.60;;;5.60;;
13979;SDS011;73871;49.900;8.594;2024-01-07T12:19:21;6.83;;;5.57;;
13979;SDS011;73871;49.900;8.594;2024-01-07T12:22:00;6.73;;;5.20;;
13979;SDS011;73871;49.900;8.594;2024-01-07T12:24:28;8.03;;;6.70;;
13979;SDS011;73871;49.900;8.594;2024-01-07T12:26:55;7.83;;;6.53;;
13979;SDS011;73871;49.900;8.594;2024-01-07T12:29:22;10.10;;;7.40;;
13979;SDS011;73871;49.900;8.594;2024-01-07T12:31:50;7.53;;;6.10;;
13979;SDS011;73871;49.900;8.594;2024-01-07T12:34:17;6.83;;;5.93;;
13979;SDS011;73871;49.900;8.594;2024-01-07T12:36:47;7.87;;;6.97;;
13979;SDS011;73871;49.900;8.594;2024-01-07T12:39:13;10.00;;;8.30;;
13979;SDS011;73871;49.900;8.594;2024-01-07T12:41:40;9.70;;;7.87;;
13979;SDS011;73871;49.900;8.594;2024-01-07T12:44:07;9.83;;;7.57;;
13979;SDS011;73871;49.900;8.594;2024-01-07T12:46:35;8.60;;;7.60;;
13979;SDS011;73871;49.900;8.594;2024-01-07T12:49:01;10.27;;;6.67;;
13979;SDS011;73871;49.900;8.594;2024-01-07T12:51:28;8.23;;;6.40;;
13979;SDS011;73871;49.900;8.594;2024-01-07T12:53:55;7.83;;;6.03;;
13979;SDS011;73871;49.900;8.594;2024-01-07T12:56:23;8.60;;;7.07;;
13979;SDS011;73871;49.900;8.594;2024-01-07T12:58:49;8.10;;;5.63;;
13979;SDS011;73871;49.900;8.594;2024-01-07T13:01:16;13.23;;;9.23;;
13979;SDS011;73871;49.900;8.594;2024-01-07T13:03:43;8.67;;;6.73;;
13979;SDS011;73871;49.900;8.594;2024-01-07T13:06:10;7.80;;;6.23;;
13979;SDS011;73871;49.900;8.594;2024-01-07T13:08:37;8.30;;;6.20;;
13979;SDS011;73871;49.900;8.594;2024-01-07T13:11:04;8.20;;;6.73;;
13979;SDS011;73871;49.900;8.594;2024-01-07T13:13:34;13.57;;;10.57;;
13979;SDS011;73871;49.900;8.594;2024-01-07T13:16:01;8.33;;;6.60;;
13979;SDS011;73871;49.900;8.594;2024-01-07T13:18:28;7.70;;;6.10;;
13979;SDS011;73871;49.900;8.594;2024-01-07T13:20:55;7.57;;;5.70;;
13979;SDS011;73871;49.900;8.594;2024-01-07T13:23:22;7.60;;;5.90;;
13979;SDS011;73871;49.900;8.594;2024-01-07T13:25:49;6.40;;;5.07;;
13979;SDS011;73871;49.900;8.594;2024-01-07T13:28:16;7.17;;;5.57;;
13979;SDS011;73871;49.900;8.594;2024-01-07T13:30:43;8.13;;;6.27;;
13979;SDS011;73871;49.900;8.594;2024-01-07T13:33:10;6.13;;;5.00;;
13979;SDS011;73871;49.900;8.594;2024-01-07T13:35:36;6.40;;;5.80;;
13979;SDS011;73871;49.900;8.594;2024-01-07T13:38:03;7.50;;;5.60;;
13979;SDS011;73871;49.900;8.594;2024-01-07T13:40:30;7.77;;;5.40;;
13979;SDS011;73871;49.900;8.594;2024-01-07T13:42:57;6.47;;;5.17;;
13979;SDS011;73871;49.900;8.594;2024-01-07T13:45:24;6.60;;;5.40;;
13979;SDS011;73871;49.900;8.594;2024-01-07T13:47:51;6.37;;;5.30;;
13979;SDS011;73871;49.900;8.594;2024-01-07T13:50:18;7.63;;;5.90;;
13979;SDS011;73871;49.900;8.594;2024-01-07T13:52:44;5.87;;;5.27;;
13979;SDS011;73871;49.900;8.594;2024-01-07T13:55:11;6.37;;;5.63;;
13979;SDS011;73871;49.900;8.594;2024-01-07T13:57:40;5.37;;;4.70;;
13979;SDS011;73871;49.900;8.594;2024-01-07T14:00:08;7.30;;;5.47;;
13979;SDS011;73871;49.900;8.594;2024-01-07T14:02:39;7.40;;;5.43;;
13979;SDS011;73871;49.900;8.594;2024-01-07T14:05:07;7.97;;;5.60;;
13979;SDS011;73871;49.900;8.594;2024-01-07T14:07:35;8.50;;;5.03;;
13979;SDS011;73871;49.900;8.594;2024-01-07T14:10:02;5.43;;;4.60;;
13979;SDS011;73871;49.900;8.594;2024-01-07T14:12:30;5.73;;;4.63;;
13979;SDS011;73871;49.900;8.594;2024-01-07T14:14:58;6.47;;;5.00;;
13979;SDS011;73871;49.900;8.594;2024-01-07T14:17:25;6.57;;;4.80;;
13979;SDS011;73871;49.900;8.594;2024-01-07T14:19:52;5.50;;;4.90;;
13979;SDS011;73871;49.900;8.594;2024-01-07T14:22:19;6.07;;;4.90;;
13979;SDS011;73871;49.900;8.594;2024-01-07T14:24:47;8.17;;;5.23;;
13979;SDS011;73871;49.900;8.594;2024-01-07T14:27:15;6.90;;;5.23;;
13979;SDS011;73871;49.900;8.594;2024-01-07T14:29:42;6.73;;;5.07;;
13979;SDS011;73871;49.900;8.594;2024-01-07T14:32:10;6.70;;;5.17;;
13979;SDS011;73871;49.900;8.594;2024-01-07T14:34:40;8.63;;;5.73;;
13979;SDS011;73871;49.900;8.594;2024-01-07T14:37:08;9.83;;;6.53;;
13979;SDS011;73871;49.900;8.594;2024-01-07T14:39:36;9.07;;;5.90;;
13979;SDS011;73871;49.900;8.594;2024-01-07T14:42:03;5.90;;;4.70;;
13979;SDS011;73871;49.900;8.594;2024-01-07T14:44:30;7.90;;;5.00;;
13979;SDS011;73871;49.900;8.594;2024-01-07T14:47:12;6.50;;;4.40;;
13979;SDS011;73871;49.900;8.594;2024-01-07T14:49:40;7.83;;;5.50;;
13979;SDS011;73871;49.900;8.594;2024-01-07T14:52:07;8.53;;;5.77;;
13979;SDS011;73871;49.900;8.594;2024-01-07T14:54:34;8.00;;;6.20;;
13979;SDS011;73871;49.900;8.594;2024-01-07T14:57:03;7.40;;;5.10;;